createdAt,value
2023-10-01T00:01:41.507Z,0
2023-10-01T00:06:41.436Z,0
2023-10-01T00:11:41.390Z,0
2023-10-01T00:13:04.365Z,0.9
2023-10-01T00:14:08.678Z,0.8
2023-10-01T00:16:04.404Z,0
2023-10-01T00:16:41.463Z,0
2023-10-01T00:21:41.475Z,0
2023-10-01T00:26:41.515Z,0
2023-10-01T00:31:41.662Z,0
2023-10-01T00:36:41.548Z,0
2023-10-01T00:41:41.657Z,0
2023-10-01T00:46:41.630Z,0
2023-10-01T00:51:41.745Z,0
2023-10-01T00:56:41.488Z,0
2023-10-01T01:01:41.635Z,0
2023-10-01T01:06:41.520Z,0
2023-10-01T01:11:41.421Z,0
2023-10-01T01:16:41.489Z,0
2023-10-01T01:21:41.416Z,0
2023-10-01T01:26:41.400Z,0
2023-10-01T01:31:41.439Z,0
2023-10-01T01:36:41.413Z,0
2023-10-01T01:41:41.415Z,0
2023-10-01T01:46:41.492Z,0
2023-10-01T01:51:41.411Z,0
2023-10-01T01:56:41.538Z,0
2023-10-01T02:01:41.621Z,0
2023-10-01T02:06:41.406Z,0
2023-10-01T02:11:41.415Z,0
2023-10-01T02:16:41.782Z,0
2023-10-01T02:21:41.422Z,0
2023-10-01T02:26:41.418Z,0
2023-10-01T02:31:41.512Z,0
2023-10-01T02:36:41.411Z,0
2023-10-01T02:41:41.425Z,0
2023-10-01T02:46:41.487Z,0
2023-10-01T02:51:41.427Z,0
2023-10-01T02:56:41.444Z,0
2023-10-01T03:01:41.469Z,0
2023-10-01T03:06:41.438Z,0
2023-10-01T03:11:41.558Z,0
2023-10-01T03:16:41.509Z,0
2023-10-01T03:21:41.436Z,0
2023-10-01T03:26:41.444Z,0
2023-10-01T03:31:41.448Z,0
2023-10-01T03:36:41.432Z,0
2023-10-01T03:41:41.438Z,0
2023-10-01T03:46:41.507Z,0
2023-10-01T03:51:41.472Z,0
2023-10-01T03:56:41.436Z,0
2023-10-01T04:01:41.508Z,0
2023-10-01T04:06:41.484Z,0
2023-10-01T04:11:41.451Z,0
2023-10-01T04:16:41.567Z,0
2023-10-01T04:21:41.453Z,0
2023-10-01T04:26:41.494Z,0
2023-10-01T04:31:41.597Z,0
2023-10-01T04:36:41.445Z,0
2023-10-01T04:41:41.432Z,0
2023-10-01T04:46:41.550Z,0
2023-10-01T04:50:05.140Z,0.1
2023-10-01T04:51:41.441Z,0.1
2023-10-01T04:55:17.517Z,0.2
2023-10-01T04:56:41.445Z,0.2
2023-10-01T04:59:05.124Z,0.5
2023-10-01T05:01:05.135Z,0.7
2023-10-01T05:01:41.505Z,0.7
2023-10-01T05:02:05.191Z,0.8
2023-10-01T05:03:05.188Z,0.9
2023-10-01T05:04:05.228Z,1
2023-10-01T05:05:05.163Z,1.2
2023-10-01T05:06:05.146Z,1.5
2023-10-01T05:06:41.437Z,1.5
2023-10-01T05:07:05.168Z,1.7
2023-10-01T05:08:05.160Z,1.9
2023-10-01T05:09:05.164Z,2.3
2023-10-01T05:10:05.212Z,2.6
2023-10-01T05:11:05.165Z,2.9
2023-10-01T05:11:41.438Z,2.9
2023-10-01T05:12:05.199Z,3.3
2023-10-01T05:13:05.208Z,3.7
2023-10-01T05:14:05.183Z,4.2
2023-10-01T05:15:05.179Z,4.6
2023-10-01T05:16:05.250Z,5.1
2023-10-01T05:16:41.546Z,5.1
2023-10-01T05:18:05.201Z,6.2
2023-10-01T05:19:05.227Z,6.8
2023-10-01T05:20:05.222Z,7.4
2023-10-01T05:21:05.200Z,7.9
2023-10-01T05:21:41.448Z,7.9
2023-10-01T05:23:05.201Z,9.1
2023-10-01T05:24:05.215Z,9.7
2023-10-01T05:25:05.249Z,10.4
2023-10-01T05:26:05.199Z,11.2
2023-10-01T05:26:41.441Z,11.2
2023-10-01T05:27:05.210Z,12
2023-10-01T05:28:07.803Z,12.8
2023-10-01T05:29:05.212Z,13.6
2023-10-01T05:30:05.208Z,14.3
2023-10-01T05:31:05.227Z,14.8
2023-10-01T05:31:41.536Z,14.8
2023-10-01T05:32:05.269Z,15.6
2023-10-01T05:33:05.230Z,16.4
2023-10-01T05:34:05.250Z,17.3
2023-10-01T05:35:05.247Z,18.2
2023-10-01T05:36:05.228Z,19
2023-10-01T05:36:41.434Z,19
2023-10-01T05:37:05.233Z,19.9
2023-10-01T05:38:05.237Z,20.8
2023-10-01T05:39:05.230Z,21.6
2023-10-01T05:40:12.838Z,22.5
2023-10-01T05:41:05.244Z,23.4
2023-10-01T05:41:41.439Z,23.4
2023-10-01T05:42:05.250Z,24.3
2023-10-01T05:43:05.272Z,25.4
2023-10-01T05:44:05.260Z,26.3
2023-10-01T05:45:05.250Z,27.3
2023-10-01T05:46:05.265Z,28.3
2023-10-01T05:46:41.661Z,28.3
2023-10-01T05:47:05.335Z,29.1
2023-10-01T05:48:05.296Z,29.9
2023-10-01T05:49:05.319Z,30.7
2023-10-01T05:50:05.278Z,31.6
2023-10-01T05:51:05.295Z,32.5
2023-10-01T05:51:41.454Z,32.5
2023-10-01T05:53:05.301Z,34.2
2023-10-01T05:54:05.298Z,34.9
2023-10-01T05:55:05.326Z,35.8
2023-10-01T05:56:05.286Z,36.7
2023-10-01T05:56:41.446Z,36.7
2023-10-01T05:57:05.300Z,37.5
2023-10-01T05:58:05.342Z,38.3
2023-10-01T05:59:05.330Z,39.1
2023-10-01T06:00:05.297Z,39.8
2023-10-01T06:01:05.404Z,40.7
2023-10-01T06:01:41.675Z,40.7
2023-10-01T06:03:05.361Z,42.4
2023-10-01T06:04:05.413Z,43.4
2023-10-01T06:05:05.326Z,43.9
2023-10-01T06:06:05.327Z,44.8
2023-10-01T06:06:41.442Z,44.8
2023-10-01T06:08:05.333Z,46.5
2023-10-01T06:09:05.325Z,47.4
2023-10-01T06:10:05.340Z,48.2
2023-10-01T06:11:05.333Z,49.2
2023-10-01T06:11:41.447Z,49.2
2023-10-01T06:12:05.385Z,50.1
2023-10-01T06:13:05.388Z,51.2
2023-10-01T06:14:05.347Z,52.1
2023-10-01T06:15:05.347Z,53.1
2023-10-01T06:16:05.410Z,53.8
2023-10-01T06:16:41.541Z,53.8
2023-10-01T06:17:05.561Z,54.3
2023-10-01T06:18:05.368Z,54.7
2023-10-01T06:20:05.390Z,54.3
2023-10-01T06:21:05.392Z,52.4
2023-10-01T06:21:41.469Z,52.4
2023-10-01T06:23:05.370Z,56.3
2023-10-01T06:24:05.419Z,59.5
2023-10-01T06:25:05.420Z,57.7
2023-10-01T06:26:05.431Z,64.5
2023-10-01T06:26:41.455Z,64.5
2023-10-01T06:28:05.418Z,71.5
2023-10-01T06:29:05.389Z,74
2023-10-01T06:30:05.385Z,77.4
2023-10-01T06:31:05.434Z,80.7
2023-10-01T06:31:41.514Z,80.7
2023-10-01T06:33:05.422Z,82.9
2023-10-01T06:34:05.419Z,85.3
2023-10-01T06:35:05.420Z,88.7
2023-10-01T06:36:05.406Z,93.6
2023-10-01T06:36:43.649Z,93.6
2023-10-01T06:37:05.432Z,99.5
2023-10-01T06:38:05.422Z,111.6
2023-10-01T06:39:05.418Z,122
2023-10-01T06:40:05.444Z,130.5
2023-10-01T06:41:05.424Z,138.1
2023-10-01T06:42:05.430Z,144.9
2023-10-01T06:43:05.469Z,150.8
2023-10-01T06:44:05.429Z,154.5
2023-10-01T06:45:05.450Z,161.6
2023-10-01T06:46:07.393Z,174.5
2023-10-01T06:47:05.479Z,186.1
2023-10-01T06:48:05.514Z,218.8
2023-10-01T06:49:05.464Z,253.2
2023-10-01T06:50:05.456Z,234.1
2023-10-01T06:51:05.469Z,190
2023-10-01T06:53:05.452Z,181.6
2023-10-01T06:54:05.458Z,184.7
2023-10-01T06:55:05.511Z,188.9
2023-10-01T06:56:05.473Z,195.5
2023-10-01T06:58:05.476Z,200
2023-10-01T06:59:05.474Z,200.9
2023-10-01T07:00:05.473Z,202.7
2023-10-01T07:01:05.557Z,205.3
2023-10-01T07:02:05.550Z,208.3
2023-10-01T07:03:05.515Z,211.7
2023-10-01T07:04:05.561Z,215.5
2023-10-01T07:05:14.255Z,218.3
2023-10-01T07:06:05.502Z,221.9
2023-10-01T07:06:41.498Z,221.9
2023-10-01T07:08:05.499Z,229.3
2023-10-01T07:09:05.504Z,230.5
2023-10-01T07:10:05.548Z,232
2023-10-01T07:11:05.511Z,235.5
2023-10-01T07:11:41.471Z,235.5
2023-10-01T07:12:05.510Z,239.1
2023-10-01T07:13:05.535Z,240.9
2023-10-01T07:14:05.513Z,241.2
2023-10-01T07:15:05.701Z,242.8
2023-10-01T07:16:05.573Z,247.8
2023-10-01T07:17:05.557Z,255.2
2023-10-01T07:18:05.551Z,257.2
2023-10-01T07:19:05.553Z,246.6
2023-10-01T07:20:05.532Z,240.5
2023-10-01T07:21:05.550Z,221.5
2023-10-01T07:23:05.551Z,213.2
2023-10-01T07:24:05.585Z,224.9
2023-10-01T07:25:05.558Z,237.9
2023-10-01T07:26:05.554Z,242.1
2023-10-01T07:27:05.554Z,250.8
2023-10-01T07:28:05.573Z,259.9
2023-10-01T07:29:05.782Z,260.4
2023-10-01T07:30:05.577Z,263.4
2023-10-01T07:31:05.650Z,277.1
2023-10-01T07:31:41.526Z,277.1
2023-10-01T07:33:05.603Z,361.6
2023-10-01T07:34:05.622Z,376.4
2023-10-01T07:35:05.604Z,479.9
2023-10-01T07:36:05.600Z,527.2
2023-10-01T07:38:05.600Z,570.5
2023-10-01T07:39:05.592Z,574.3
2023-10-01T07:40:05.596Z,583
2023-10-01T07:41:05.640Z,599.2
2023-10-01T07:43:05.603Z,619.1
2023-10-01T07:44:05.606Z,648
2023-10-01T07:45:05.626Z,637.7
2023-10-01T07:46:05.651Z,715.1
2023-10-01T07:48:05.644Z,666.1
2023-10-01T07:49:05.726Z,761.3
2023-10-01T07:50:05.620Z,818
2023-10-01T07:51:05.653Z,842.5
2023-10-01T07:53:05.631Z,825.9
2023-10-01T07:54:05.629Z,836.9
2023-10-01T07:55:05.667Z,759
2023-10-01T07:56:05.642Z,685.8
2023-10-01T07:56:41.459Z,685.8
2023-10-01T07:58:05.664Z,611.6
2023-10-01T07:59:05.653Z,563.2
2023-10-01T08:00:05.671Z,546.2
2023-10-01T08:01:05.712Z,562
2023-10-01T08:01:41.517Z,562
2023-10-01T08:02:05.750Z,528
2023-10-01T08:03:05.686Z,592.4
2023-10-01T08:04:05.684Z,603.3
2023-10-01T08:05:05.670Z,665.1
2023-10-01T08:06:05.738Z,676.4
2023-10-01T08:08:05.695Z,790.2
2023-10-01T08:09:05.694Z,824
2023-10-01T08:10:05.723Z,896.2
2023-10-01T08:11:05.684Z,879.3
2023-10-01T08:12:05.686Z,866.5
2023-10-01T08:13:05.756Z,816.4
2023-10-01T08:14:05.690Z,890.8
2023-10-01T08:15:05.735Z,898.7
2023-10-01T08:16:05.719Z,856.4
2023-10-01T08:17:05.737Z,809
2023-10-01T08:18:05.807Z,863.6
2023-10-01T08:19:05.730Z,899.7
2023-10-01T08:20:05.713Z,916
2023-10-01T08:21:05.713Z,1054.5
2023-10-01T08:22:05.722Z,1065
2023-10-01T08:23:05.720Z,1046.3
2023-10-01T08:24:05.723Z,991
2023-10-01T08:25:05.748Z,838.2
2023-10-01T08:26:05.724Z,821.1
2023-10-01T08:26:41.466Z,821.1
2023-10-01T08:27:05.735Z,1000
2023-10-01T08:28:05.773Z,1032.4
2023-10-01T08:29:05.740Z,1039.1
2023-10-01T08:30:05.749Z,1033.8
2023-10-01T08:31:05.765Z,785.9
2023-10-01T08:31:41.543Z,785.9
2023-10-01T08:32:05.841Z,858.3
2023-10-01T08:33:05.758Z,824.6
2023-10-01T08:34:05.786Z,920.8
2023-10-01T08:35:05.759Z,934.1
2023-10-01T08:36:05.757Z,882.1
2023-10-01T08:37:06.269Z,1022.2
2023-10-01T08:38:05.760Z,955.5
2023-10-01T08:39:05.782Z,923.4
2023-10-01T08:40:05.813Z,1002.9
2023-10-01T08:41:05.773Z,1130.5
2023-10-01T08:42:05.778Z,1174.7
2023-10-01T08:43:05.858Z,1176.9
2023-10-01T08:44:05.909Z,1171.1
2023-10-01T08:45:05.797Z,1104.7
2023-10-01T08:46:05.885Z,1045.6
2023-10-01T08:47:05.833Z,1039.8
2023-10-01T08:48:05.819Z,1060.8
2023-10-01T08:49:05.828Z,1118.4
2023-10-01T08:50:05.807Z,1120.2
2023-10-01T08:51:05.803Z,1146.9
2023-10-01T08:51:41.466Z,1146.9
2023-10-01T08:52:05.837Z,1173.4
2023-10-01T08:53:05.806Z,1155.4
2023-10-01T08:54:05.829Z,1101.3
2023-10-01T08:55:05.864Z,997.2
2023-10-01T08:56:05.828Z,1289.3
2023-10-01T08:58:05.866Z,1241
2023-10-01T08:59:05.833Z,1130.1
2023-10-01T09:00:05.883Z,983.7
2023-10-01T09:01:05.952Z,872.3
2023-10-01T09:03:05.929Z,829.9
2023-10-01T09:04:05.944Z,856.5
2023-10-01T09:05:05.845Z,923.3
2023-10-01T09:06:06.361Z,937.7
2023-10-01T09:07:05.902Z,865.4
2023-10-01T09:08:05.907Z,775.1
2023-10-01T09:09:05.866Z,698.3
2023-10-01T09:10:05.894Z,645.9
2023-10-01T09:11:05.970Z,659.8
2023-10-01T09:13:05.894Z,872.3
2023-10-01T09:14:05.901Z,901.9
2023-10-01T09:15:05.942Z,775.6
2023-10-01T09:16:05.944Z,685.4
2023-10-01T09:16:41.573Z,685.4
2023-10-01T09:17:05.910Z,726.6
2023-10-01T09:18:05.932Z,759.2
2023-10-01T09:19:06.050Z,836.7
2023-10-01T09:20:05.896Z,880.6
2023-10-01T09:21:05.900Z,914.7
2023-10-01T09:22:05.942Z,892.9
2023-10-01T09:23:05.919Z,965.5
2023-10-01T09:24:05.961Z,950.6
2023-10-01T09:25:05.936Z,1069.1
2023-10-01T09:26:05.943Z,1125.7
2023-10-01T09:28:05.953Z,1104.3
2023-10-01T09:29:05.919Z,1082.2
2023-10-01T09:30:05.942Z,1022.7
2023-10-01T09:31:05.983Z,935.6
2023-10-01T09:32:05.982Z,858.1
2023-10-01T09:33:06.018Z,792.5
2023-10-01T09:34:05.971Z,715.1
2023-10-01T09:35:05.941Z,631.1
2023-10-01T09:36:05.949Z,646.1
2023-10-01T09:37:05.956Z,690.6
2023-10-01T09:38:05.949Z,732.3
2023-10-01T09:39:05.964Z,763
2023-10-01T09:40:05.991Z,743.2
2023-10-01T09:41:05.964Z,686.6
2023-10-01T09:42:05.969Z,655.1
2023-10-01T09:43:06.054Z,668.9
2023-10-01T09:44:05.985Z,691.2
2023-10-01T09:45:05.993Z,673.7
2023-10-01T09:46:06.029Z,686.9
2023-10-01T09:47:06.018Z,711.2
2023-10-01T09:48:06.086Z,701.3
2023-10-01T09:49:06.040Z,686.9
2023-10-01T09:50:06.008Z,674.7
2023-10-01T09:51:06.008Z,666.7
2023-10-01T09:52:06.048Z,658.6
2023-10-01T09:53:06.102Z,657.5
2023-10-01T09:54:06.024Z,667.1
2023-10-01T09:55:06.043Z,690.2
2023-10-01T09:56:06.030Z,701.2
2023-10-01T09:57:06.023Z,689.3
2023-10-01T09:58:06.048Z,666.8
2023-10-01T09:59:06.033Z,648
2023-10-01T10:00:06.074Z,637.7
2023-10-01T10:01:06.045Z,626.4
2023-10-01T10:01:41.572Z,626.4
2023-10-01T10:03:06.065Z,643.5
2023-10-01T10:04:06.197Z,691.7
2023-10-01T10:05:06.210Z,716.3
2023-10-01T10:06:06.058Z,740.3
2023-10-01T10:08:06.064Z,685
2023-10-01T10:09:06.288Z,673.1
2023-10-01T10:10:06.071Z,671.2
2023-10-01T10:11:06.070Z,675.7
2023-10-01T10:12:06.073Z,678.2
2023-10-01T10:13:06.121Z,682.2
2023-10-01T10:14:06.069Z,693.1
2023-10-01T10:15:06.107Z,696.5
2023-10-01T10:16:06.215Z,700
2023-10-01T10:17:06.116Z,708.1
2023-10-01T10:18:06.109Z,728.6
2023-10-01T10:19:06.282Z,733
2023-10-01T10:20:06.130Z,737.5
2023-10-01T10:21:06.131Z,740.7
2023-10-01T10:23:06.112Z,754.4
2023-10-01T10:24:06.134Z,766.6
2023-10-01T10:25:06.133Z,777
2023-10-01T10:26:06.132Z,785.3
2023-10-01T10:28:06.144Z,802.7
2023-10-01T10:29:06.146Z,809.8
2023-10-01T10:31:06.180Z,818.4
2023-10-01T10:32:06.200Z,829.1
2023-10-01T10:33:06.180Z,846.9
2023-10-01T10:34:06.297Z,839.9
2023-10-01T10:35:06.261Z,841.2
2023-10-01T10:36:06.156Z,845.7
2023-10-01T10:38:06.163Z,890.8
2023-10-01T10:39:06.270Z,894.4
2023-10-01T10:40:06.306Z,888.2
2023-10-01T10:41:06.263Z,895.1
2023-10-01T10:41:41.499Z,895.1
2023-10-01T10:43:06.188Z,959.7
2023-10-01T10:44:06.222Z,1028
2023-10-01T10:45:06.162Z,1641.6
2023-10-01T10:46:06.201Z,2003.8
2023-10-01T10:47:06.323Z,2008.7
2023-10-01T10:48:10.776Z,2007.4
2023-10-01T10:49:06.329Z,1983.2
2023-10-01T10:50:06.190Z,1977.2
2023-10-01T10:51:17.092Z,2008.7
2023-10-01T10:52:06.227Z,2047.9
2023-10-01T10:53:06.198Z,2057.3
2023-10-01T10:54:06.212Z,2072.9
2023-10-01T10:55:06.227Z,2059.1
2023-10-01T10:56:06.220Z,2038.9
2023-10-01T10:57:06.943Z,2011.5
2023-10-01T10:58:06.228Z,1987.6
2023-10-01T10:59:06.341Z,1979
2023-10-01T11:00:06.222Z,1983.2
2023-10-01T11:01:06.353Z,1980.1
2023-10-01T11:02:06.296Z,1981.9
2023-10-01T11:03:06.400Z,1994.3
2023-10-01T11:04:06.248Z,1996.5
2023-10-01T11:05:06.307Z,1984.9
2023-10-01T11:06:06.254Z,2004
2023-10-01T11:07:06.428Z,2070.7
2023-10-01T11:08:06.370Z,2145.4
2023-10-01T11:09:06.372Z,2339.6
2023-10-01T11:10:06.294Z,2323.4
2023-10-01T11:11:06.371Z,2386.4
2023-10-01T11:12:06.264Z,2478
2023-10-01T11:13:06.375Z,2492
2023-10-01T11:14:06.281Z,2470.3
2023-10-01T11:15:06.280Z,2500.3
2023-10-01T11:16:06.360Z,2559.4
2023-10-01T11:17:06.584Z,2618.3
2023-10-01T11:18:06.344Z,2732.9
2023-10-01T11:19:07.429Z,2999.3
2023-10-01T11:20:06.431Z,3397.4
2023-10-01T11:21:06.283Z,6334.8
2023-10-01T11:22:06.324Z,8170.2
2023-10-01T11:23:06.307Z,4071.6
2023-10-01T11:24:06.297Z,2697
2023-10-01T11:25:06.389Z,3161.3
2023-10-01T11:26:06.312Z,7983.2
2023-10-01T11:28:06.228Z,17679.5
2023-10-01T11:29:06.221Z,13241
2023-10-01T11:30:06.321Z,4911.7
2023-10-01T11:31:06.418Z,3066.7
2023-10-01T11:33:06.477Z,11274.1
2023-10-01T11:34:06.292Z,12148.1
2023-10-01T11:35:06.340Z,8475.6
2023-10-01T11:36:06.383Z,4590.2
2023-10-01T11:37:06.359Z,3074.7
2023-10-01T11:38:06.344Z,2145.2
2023-10-01T11:39:06.357Z,2053.2
2023-10-01T11:40:06.374Z,2221
2023-10-01T11:41:06.355Z,2644.9
2023-10-01T11:42:06.362Z,4829.9
2023-10-01T11:43:06.387Z,3611.1
2023-10-01T11:44:06.365Z,2206.1
2023-10-01T11:45:06.368Z,2371
2023-10-01T11:46:06.429Z,3772.7
2023-10-01T11:48:06.476Z,21160.9
2023-10-01T11:49:06.625Z,12023.5
2023-10-01T11:50:06.397Z,3298.6
2023-10-01T11:51:06.389Z,2241.1
2023-10-01T11:52:06.408Z,2061.4
2023-10-01T11:53:06.432Z,2051.2
2023-10-01T11:54:06.384Z,2081.5
2023-10-01T11:55:06.400Z,2190.4
2023-10-01T11:56:06.400Z,2308.1
2023-10-01T11:57:06.807Z,2550.5
2023-10-01T11:58:06.452Z,2495.5
2023-10-01T11:59:06.413Z,3182.5
2023-10-01T12:00:06.407Z,3774.2
2023-10-01T12:01:06.445Z,8562.5
2023-10-01T12:03:06.143Z,24352.4
2023-10-01T12:04:06.083Z,26040.7
2023-10-01T12:05:06.084Z,24145.1
2023-10-01T12:06:06.430Z,11434
2023-10-01T12:08:06.150Z,19521.6
2023-10-01T12:09:06.298Z,14524
2023-10-01T12:10:06.873Z,11895.8
2023-10-01T12:11:06.286Z,15759.5
2023-10-01T12:12:06.437Z,11910
2023-10-01T12:13:06.480Z,2518.6
2023-10-01T12:14:06.481Z,2116.1
2023-10-01T12:15:06.451Z,2016.6
2023-10-01T12:16:06.502Z,1964.1
2023-10-01T12:17:06.483Z,1927
2023-10-01T12:18:06.472Z,1877.5
2023-10-01T12:19:06.482Z,1841.5
2023-10-01T12:20:06.495Z,1828
2023-10-01T12:21:06.481Z,1837.8
2023-10-01T12:22:06.597Z,1812.3
2023-10-01T12:23:06.482Z,1813.9
2023-10-01T12:24:06.487Z,1817.4
2023-10-01T12:25:06.549Z,1817.7
2023-10-01T12:26:06.504Z,1818.2
2023-10-01T12:28:06.524Z,1840.3
2023-10-01T12:29:06.502Z,1852.2
2023-10-01T12:30:06.486Z,1854.4
2023-10-01T12:31:06.616Z,1889.2
2023-10-01T12:32:06.559Z,1898.3
2023-10-01T12:33:06.551Z,1887.8
2023-10-01T12:34:06.527Z,1870.6
2023-10-01T12:35:06.532Z,1853.8
2023-10-01T12:36:06.518Z,1839
2023-10-01T12:37:06.572Z,1814.1
2023-10-01T12:38:06.542Z,1782.4
2023-10-01T12:39:06.532Z,1747.1
2023-10-01T12:40:06.576Z,1736.4
2023-10-01T12:41:06.541Z,1719.5
2023-10-01T12:42:06.547Z,1722.1
2023-10-01T12:43:06.543Z,1700.3
2023-10-01T12:44:06.548Z,1679
2023-10-01T12:45:06.560Z,1652.2
2023-10-01T12:46:06.574Z,1619.8
2023-10-01T12:47:06.557Z,1583.2
2023-10-01T12:48:06.599Z,1544.5
2023-10-01T12:49:06.562Z,1519.6
2023-10-01T12:50:06.599Z,1515.3
2023-10-01T12:51:06.552Z,1508.4
2023-10-01T12:52:06.600Z,1508.8
2023-10-01T12:53:07.472Z,1500
2023-10-01T12:54:06.571Z,1487.6
2023-10-01T12:55:06.583Z,1473.4
2023-10-01T12:56:06.584Z,1478.6
2023-10-01T12:57:06.583Z,1485.8
2023-10-01T12:58:06.588Z,1467.9
2023-10-01T12:59:06.605Z,1441.6
2023-10-01T13:00:06.587Z,1415.1
2023-10-01T13:01:06.626Z,1398.3
2023-10-01T13:02:06.626Z,1388
2023-10-01T13:03:06.652Z,1378
2023-10-01T13:04:06.610Z,1375.8
2023-10-01T13:05:06.613Z,1365.1
2023-10-01T13:06:06.661Z,1349.7
2023-10-01T13:07:06.619Z,1356.3
2023-10-01T13:08:06.621Z,1363.5
2023-10-01T13:09:06.622Z,1358.9
2023-10-01T13:10:06.629Z,1349.2
2023-10-01T13:11:06.646Z,1328.4
2023-10-01T13:13:06.944Z,1317.2
2023-10-01T13:14:06.655Z,1319.4
2023-10-01T13:15:06.650Z,1315.1
2023-10-01T13:16:06.674Z,1306.5
2023-10-01T13:17:06.698Z,1292.6
2023-10-01T13:18:06.703Z,1278.7
2023-10-01T13:19:06.648Z,1262.4
2023-10-01T13:20:06.665Z,1260.6
2023-10-01T13:21:06.669Z,1252.3
2023-10-01T13:22:06.672Z,1236.6
2023-10-01T13:23:06.665Z,1225.7
2023-10-01T13:24:06.671Z,1221.6
2023-10-01T13:25:06.686Z,1212.7
2023-10-01T13:26:06.673Z,1200.5
2023-10-01T13:27:06.684Z,1194.6
2023-10-01T13:28:06.693Z,1190
2023-10-01T13:29:06.702Z,1182.9
2023-10-01T13:30:06.698Z,1176.4
2023-10-01T13:31:06.712Z,1168.3
2023-10-01T13:33:06.727Z,1154.1
2023-10-01T13:34:06.705Z,1146.2
2023-10-01T13:35:06.707Z,1138.1
2023-10-01T13:36:06.715Z,1127.5
2023-10-01T13:37:06.736Z,1121.8
2023-10-01T13:38:06.719Z,1120.9
2023-10-01T13:39:06.719Z,1124.3
2023-10-01T13:40:06.746Z,1120.9
2023-10-01T13:41:06.724Z,1116
2023-10-01T13:42:06.730Z,1104.3
2023-10-01T13:43:06.742Z,1091
2023-10-01T13:44:06.742Z,1079.9
2023-10-01T13:45:06.741Z,1068.8
2023-10-01T13:46:06.766Z,1063.5
2023-10-01T13:47:06.830Z,1057.6
2023-10-01T13:48:06.781Z,1051
2023-10-01T13:49:06.759Z,1047.5
2023-10-01T13:50:06.839Z,1037.3
2023-10-01T13:51:06.759Z,1028
2023-10-01T13:52:06.748Z,1031.4
2023-10-01T13:53:06.743Z,1033.1
2023-10-01T13:54:06.790Z,1028.7
2023-10-01T13:56:06.782Z,1024.9
2023-10-01T13:58:06.795Z,1033.6
2023-10-01T13:59:06.785Z,1064.2
2023-10-01T14:00:06.816Z,1411.8
2023-10-01T14:01:06.832Z,1421.4
2023-10-01T14:02:06.818Z,1422.3
2023-10-01T14:03:06.811Z,1821.7
2023-10-01T14:04:06.798Z,1608.9
2023-10-01T14:05:06.874Z,1355.8
2023-10-01T14:06:06.805Z,1350.5
2023-10-01T14:07:06.812Z,1351.1
2023-10-01T14:08:06.810Z,1354.3
2023-10-01T14:09:06.811Z,1357.6
2023-10-01T14:10:06.829Z,1368.9
2023-10-01T14:11:06.819Z,1377.7
2023-10-01T14:12:06.826Z,1379.8
2023-10-01T14:13:06.814Z,1326.8
2023-10-01T14:14:06.847Z,1352.2
2023-10-01T14:15:06.839Z,1393.5
2023-10-01T14:16:06.848Z,1453.3
2023-10-01T14:16:41.674Z,1453.3
2023-10-01T14:17:06.948Z,1572.5
2023-10-01T14:18:06.967Z,1829.2
2023-10-01T14:19:06.883Z,8065.2
2023-10-01T14:20:06.612Z,17279.1
2023-10-01T14:21:06.848Z,11227.1
2023-10-01T14:22:06.858Z,7525.5
2023-10-01T14:23:06.864Z,4222.4
2023-10-01T14:24:06.899Z,1849.5
2023-10-01T14:25:06.868Z,1728.3
2023-10-01T14:26:06.877Z,1894.9
2023-10-01T14:28:06.881Z,1536.5
2023-10-01T14:29:06.981Z,5327.4
2023-10-01T14:30:06.892Z,8535.6
2023-10-01T14:31:07.162Z,5102.3
2023-10-01T14:32:06.910Z,2059.1
2023-10-01T14:33:06.939Z,1948.4
2023-10-01T14:34:06.907Z,2106.4
2023-10-01T14:35:06.896Z,2201.4
2023-10-01T14:36:06.912Z,2545.8
2023-10-01T14:37:06.909Z,2048.7
2023-10-01T14:38:06.922Z,1221.4
2023-10-01T14:39:06.940Z,1069.5
2023-10-01T14:40:06.914Z,944.3
2023-10-01T14:41:06.958Z,886.2
2023-10-01T14:41:41.567Z,886.2
2023-10-01T14:43:06.924Z,723.3
2023-10-01T14:44:06.958Z,655.6
2023-10-01T14:45:06.929Z,614.3
2023-10-01T14:46:06.964Z,638.4
2023-10-01T14:47:07.044Z,631.8
2023-10-01T14:48:06.958Z,602.7
2023-10-01T14:49:06.935Z,601.5
2023-10-01T14:50:06.965Z,585.1
2023-10-01T14:51:06.941Z,541
2023-10-01T14:52:06.977Z,513.1
2023-10-01T14:53:06.952Z,495.1
2023-10-01T14:54:06.967Z,480.3
2023-10-01T14:55:06.950Z,465.2
2023-10-01T14:56:06.962Z,448.1
2023-10-01T14:56:41.579Z,448.1
2023-10-01T14:58:06.968Z,410.4
2023-10-01T14:59:06.987Z,414.8
2023-10-01T15:00:06.998Z,414.2
2023-10-01T15:01:06.984Z,409.4
2023-10-01T15:02:07.077Z,405.7
2023-10-01T15:03:06.993Z,401.7
2023-10-01T15:04:07.025Z,389.4
2023-10-01T15:05:07.012Z,378.3
2023-10-01T15:06:06.994Z,385.2
2023-10-01T15:07:07.378Z,378.6
2023-10-01T15:08:07.021Z,372.4
2023-10-01T15:09:07.025Z,364.7
2023-10-01T15:10:07.008Z,350.4
2023-10-01T15:11:07.015Z,339.1
2023-10-01T15:12:08.054Z,328.9
2023-10-01T15:13:15.483Z,319.1
2023-10-01T15:14:07.045Z,310.9
2023-10-01T15:15:12.646Z,304.4
2023-10-01T15:16:11.110Z,298
2023-10-01T15:17:10.900Z,295.6
2023-10-01T15:18:07.135Z,295.5
2023-10-01T15:19:07.346Z,291
2023-10-01T15:20:07.097Z,284.9
2023-10-01T15:21:07.043Z,273.5
2023-10-01T15:22:07.049Z,260.7
2023-10-01T15:23:07.053Z,245.4
2023-10-01T15:24:07.067Z,239.6
2023-10-01T15:25:07.060Z,235.4
2023-10-01T15:26:07.053Z,233.6
2023-10-01T15:27:07.066Z,234
2023-10-01T15:29:07.075Z,232
2023-10-01T15:30:07.112Z,231.8
2023-10-01T15:31:07.069Z,229.9
2023-10-01T15:32:07.125Z,227.3
2023-10-01T15:33:07.105Z,224.3
2023-10-01T15:34:07.085Z,221.9
2023-10-01T15:35:07.087Z,218.1
2023-10-01T15:36:07.085Z,215.9
2023-10-01T15:36:41.577Z,215.9
2023-10-01T15:37:07.093Z,215.2
2023-10-01T15:38:07.116Z,215.6
2023-10-01T15:39:07.108Z,215.9
2023-10-01T15:40:07.098Z,214.2
2023-10-01T15:41:07.107Z,211.2
2023-10-01T15:43:07.115Z,206.3
2023-10-01T15:44:07.139Z,205.8
2023-10-01T15:45:07.116Z,202.8
2023-10-01T15:46:07.131Z,199.9
2023-10-01T15:47:07.159Z,197.4
2023-10-01T15:48:07.153Z,195.4
2023-10-01T15:49:07.757Z,193.7
2023-10-01T15:50:07.375Z,190.9
2023-10-01T15:51:07.126Z,187.1
2023-10-01T15:51:41.564Z,187.1
2023-10-01T15:52:07.134Z,183.3
2023-10-01T15:53:07.149Z,179.7
2023-10-01T15:54:07.141Z,179.2
2023-10-01T15:55:07.149Z,179.1
2023-10-01T15:56:07.180Z,175.2
2023-10-01T15:58:07.155Z,168.9
2023-10-01T15:59:07.157Z,164.8
2023-10-01T16:00:07.161Z,162.3
2023-10-01T16:01:07.229Z,159.3
2023-10-01T16:02:07.231Z,155.5
2023-10-01T16:03:07.954Z,152
2023-10-01T16:04:07.301Z,149.3
2023-10-01T16:05:07.205Z,146.8
2023-10-01T16:06:07.170Z,144.7
2023-10-01T16:06:41.553Z,144.7
2023-10-01T16:07:07.182Z,140
2023-10-01T16:08:07.185Z,133.7
2023-10-01T16:09:07.216Z,130.4
2023-10-01T16:10:07.186Z,123.6
2023-10-01T16:11:07.591Z,114
2023-10-01T16:11:41.550Z,114
2023-10-01T16:13:07.200Z,105.5
2023-10-01T16:14:07.199Z,104
2023-10-01T16:15:07.195Z,101.8
2023-10-01T16:16:07.217Z,107.4
2023-10-01T16:18:07.264Z,103.3
2023-10-01T16:19:07.231Z,99.2
2023-10-01T16:20:13.657Z,94.4
2023-10-01T16:21:07.231Z,89.9
2023-10-01T16:22:07.214Z,84.4
2023-10-01T16:23:07.246Z,81.3
2023-10-01T16:24:07.241Z,77.8
2023-10-01T16:25:07.235Z,73.2
2023-10-01T16:26:07.300Z,69.6
2023-10-01T16:26:41.565Z,69.6
2023-10-01T16:28:07.239Z,64.4
2023-10-01T16:29:07.255Z,62
2023-10-01T16:30:07.253Z,59.1
2023-10-01T16:31:07.243Z,56.7
2023-10-01T16:32:07.349Z,54.8
2023-10-01T16:33:07.285Z,54.4
2023-10-01T16:34:07.267Z,54.6
2023-10-01T16:35:07.279Z,53.7
2023-10-01T16:36:07.284Z,50.8
2023-10-01T16:37:07.321Z,47.1
2023-10-01T16:38:07.278Z,44.8
2023-10-01T16:39:07.283Z,43.6
2023-10-01T16:40:07.292Z,42.3
2023-10-01T16:41:07.285Z,40.3
2023-10-01T16:43:07.292Z,36.2
2023-10-01T16:44:07.576Z,34
2023-10-01T16:45:07.307Z,32.1
2023-10-01T16:46:07.339Z,30.2
2023-10-01T16:47:07.337Z,28.4
2023-10-01T16:48:07.330Z,26.5
2023-10-01T16:49:07.351Z,24.7
2023-10-01T16:50:07.336Z,22.9
2023-10-01T16:51:07.326Z,20.8
2023-10-01T16:52:07.327Z,19.1
2023-10-01T16:53:07.315Z,17.7
2023-10-01T16:54:07.427Z,16.2
2023-10-01T16:55:07.358Z,14.7
2023-10-01T16:56:07.336Z,13.6
2023-10-01T16:57:07.354Z,12.2
2023-10-01T16:58:07.337Z,11
2023-10-01T16:59:07.343Z,9.7
2023-10-01T17:00:07.352Z,8.6
2023-10-01T17:01:07.387Z,7.6
2023-10-01T17:01:41.619Z,7.6
2023-10-01T17:02:07.391Z,6.7
2023-10-01T17:03:07.453Z,5.8
2023-10-01T17:04:07.427Z,5
2023-10-01T17:05:07.534Z,4.3
2023-10-01T17:06:07.368Z,3.6
2023-10-01T17:07:07.371Z,3.2
2023-10-01T17:08:07.401Z,2.7